sensor_id;sensor_type;location;lat;lon;timestamp;temperature;humidity
64062;DHT22;50308;47.438;-1.528;2022-12-24T00:01:03;14.00;92.20
64062;DHT22;50308;47.438;-1.528;2022-12-24T00:03:29;14.00;92.10
64062;DHT22;50308;47.438;-1.528;2022-12-24T00:05:54;14.00;92.20
64062;DHT22;50308;47.438;-1.528;2022-12-24T00:08:20;14.00;92.00
64062;DHT22;50308;47.438;-1.528;2022-12-24T00:10:52;14.00;92.30
64062;DHT22;50308;47.438;-1.528;2022-12-24T00:13:17;14.00;92.10
64062;DHT22;50308;47.438;-1.528;2022-12-24T00:15:43;14.00;91.90
64062;DHT22;50308;47.438;-1.528;2022-12-24T00:18:09;14.00;92.00
64062;DHT22;50308;47.438;-1.528;2022-12-24T00:20:34;14.00;92.00
64062;DHT22;50308;47.438;-1.528;2022-12-24T00:23:00;14.00;92.00
64062;DHT22;50308;47.438;-1.528;2022-12-24T00:25:25;14.00;92.00
64062;DHT22;50308;47.438;-1.528;2022-12-24T00:27:51;14.00;92.00
64062;DHT22;50308;47.438;-1.528;2022-12-24T00:30:16;14.00;91.60
64062;DHT22;50308;47.438;-1.528;2022-12-24T00:32:42;14.00;92.00
64062;DHT22;50308;47.438;-1.528;2022-12-24T00:35:07;13.90;92.00
64062;DHT22;50308;47.438;-1.528;2022-12-24T00:37:33;13.90;91.50
64062;DHT22;50308;47.438;-1.528;2022-12-24T00:39:58;13.90;92.00
64062;DHT22;50308;47.438;-1.528;2022-12-24T00:42:24;13.90;91.90
64062;DHT22;50308;47.438;-1.528;2022-12-24T00:44:50;13.90;91.90
64062;DHT22;50308;47.438;-1.528;2022-12-24T00:47:15;13.90;91.90
64062;DHT22;50308;47.438;-1.528;2022-12-24T00:49:41;13.90;92.00
64062;DHT22;50308;47.438;-1.528;2022-12-24T00:52:06;13.90;91.90
64062;DHT22;50308;47.438;-1.528;2022-12-24T00:54:32;13.90;91.90
64062;DHT22;50308;47.438;-1.528;2022-12-24T00:56:57;13.90;91.90
64062;DHT22;50308;47.438;-1.528;2022-12-24T00:59:23;13.90;91.80
64062;DHT22;50308;47.438;-1.528;2022-12-24T01:01:48;13.90;91.90
64062;DHT22;50308;47.438;-1.528;2022-12-24T01:04:14;13.90;91.90
64062;DHT22;50308;47.438;-1.528;2022-12-24T01:07:09;13.90;91.90
64062;DHT22;50308;47.438;-1.528;2022-12-24T01:09:34;13.90;91.90
64062;DHT22;50308;47.438;-1.528;2022-12-24T01:12:00;13.90;91.90
64062;DHT22;50308;47.438;-1.528;2022-12-24T01:14:25;13.90;91.80
64062;DHT22;50308;47.438;-1.528;2022-12-24T01:16:51;13.90;91.90
64062;DHT22;50308;47.438;-1.528;2022-12-24T01:19:16;13.90;91.80
64062;DHT22;50308;47.438;-1.528;2022-12-24T01:21:42;13.90;91.80
64062;DHT22;50308;47.438;-1.528;2022-12-24T01:24:12;13.90;91.80
64062;DHT22;50308;47.438;-1.528;2022-12-24T01:26:38;13.90;92.30
64062;DHT22;50308;47.438;-1.528;2022-12-24T01:29:03;13.90;91.80
64062;DHT22;50308;47.438;-1.528;2022-12-24T01:31:29;13.90;91.80
64062;DHT22;50308;47.438;-1.528;2022-12-24T01:33:55;13.90;91.80
64062;DHT22;50308;47.438;-1.528;2022-12-24T01:36:20;13.90;91.80
64062;DHT22;50308;47.438;-1.528;2022-12-24T01:38:46;13.90;91.80
64062;DHT22;50308;47.438;-1.528;2022-12-24T01:41:15;13.90;91.80
64062;DHT22;50308;47.438;-1.528;2022-12-24T01:46:44;13.90;91.80
64062;DHT22;50308;47.438;-1.528;2022-12-24T01:49:12;13.90;91.80
64062;DHT22;50308;47.438;-1.528;2022-12-24T01:51:39;13.90;91.70
64062;DHT22;50308;47.438;-1.528;2022-12-24T01:54:20;13.90;91.70
64062;DHT22;50308;47.438;-1.528;2022-12-24T01:56:48;13.90;92.20
64062;DHT22;50308;47.438;-1.528;2022-12-24T01:59:15;13.90;91.70
64062;DHT22;50308;47.438;-1.528;2022-12-24T02:01:42;13.90;91.60
64062;DHT22;50308;47.438;-1.528;2022-12-24T02:04:11;13.90;91.80
64062;DHT22;50308;47.438;-1.528;2022-12-24T02:06:37;13.90;91.80
64062;DHT22;50308;47.438;-1.528;2022-12-24T02:09:03;13.90;91.80
64062;DHT22;50308;47.438;-1.528;2022-12-24T02:11:28;13.90;91.70
64062;DHT22;50308;47.438;-1.528;2022-12-24T02:13:55;13.90;91.70
64062;DHT22;50308;47.438;-1.528;2022-12-24T02:16:37;13.90;91.70
64062;DHT22;50308;47.438;-1.528;2022-12-24T02:24:24;13.90;91.70
64062;DHT22;50308;47.438;-1.528;2022-12-24T02:27:36;13.90;91.40
64062;DHT22;50308;47.438;-1.528;2022-12-24T02:37:14;13.90;91.60
64062;DHT22;50308;47.438;-1.528;2022-12-24T02:42:07;13.90;91.60
64062;DHT22;50308;47.438;-1.528;2022-12-24T02:44:39;13.90;91.60
64062;DHT22;50308;47.438;-1.528;2022-12-24T02:47:06;13.90;91.60
64062;DHT22;50308;47.438;-1.528;2022-12-24T02:49:34;13.90;91.60
64062;DHT22;50308;47.438;-1.528;2022-12-24T02:51:59;13.90;91.60
64062;DHT22;50308;47.438;-1.528;2022-12-24T02:54:25;13.90;91.60
64062;DHT22;50308;47.438;-1.528;2022-12-24T03:04:53;13.90;91.60
64062;DHT22;50308;47.438;-1.528;2022-12-24T03:07:21;13.90;91.60
64062;DHT22;50308;47.438;-1.528;2022-12-24T03:10:13;13.90;91.60
64062;DHT22;50308;47.438;-1.528;2022-12-24T03:12:37;13.90;91.60
64062;DHT22;50308;47.438;-1.528;2022-12-24T03:15:04;13.90;91.60
64062;DHT22;50308;47.438;-1.528;2022-12-24T03:17:31;13.90;91.70
64062;DHT22;50308;47.438;-1.528;2022-12-24T03:19:59;13.90;91.70
64062;DHT22;50308;47.438;-1.528;2022-12-24T03:22:24;13.90;91.60
64062;DHT22;50308;47.438;-1.528;2022-12-24T03:24:50;13.90;91.60
64062;DHT22;50308;47.438;-1.528;2022-12-24T03:27:16;13.90;91.60
64062;DHT22;50308;47.438;-1.528;2022-12-24T03:29:42;13.90;91.60
64062;DHT22;50308;47.438;-1.528;2022-12-24T03:32:08;13.90;91.60
64062;DHT22;50308;47.438;-1.528;2022-12-24T03:34:34;13.90;91.60
64062;DHT22;50308;47.438;-1.528;2022-12-24T03:37:00;13.90;91.60
64062;DHT22;50308;47.438;-1.528;2022-12-24T03:39:25;13.90;91.60
64062;DHT22;50308;47.438;-1.528;2022-12-24T03:41:51;13.90;91.60
64062;DHT22;50308;47.438;-1.528;2022-12-24T03:44:16;13.90;91.70
64062;DHT22;50308;47.438;-1.528;2022-12-24T03:46:42;13.90;91.70
64062;DHT22;50308;47.438;-1.528;2022-12-24T03:49:07;13.90;91.60
64062;DHT22;50308;47.438;-1.528;2022-12-24T03:51:33;13.90;91.70
64062;DHT22;50308;47.438;-1.528;2022-12-24T03:53:59;13.90;91.70
64062;DHT22;50308;47.438;-1.528;2022-12-24T03:56:25;13.90;91.60
64062;DHT22;50308;47.438;-1.528;2022-12-24T03:58:50;13.90;91.70
64062;DHT22;50308;47.438;-1.528;2022-12-24T04:01:16;13.90;91.70
64062;DHT22;50308;47.438;-1.528;2022-12-24T04:03:42;13.90;91.70
64062;DHT22;50308;47.438;-1.528;2022-12-24T04:06:11;13.90;91.70
64062;DHT22;50308;47.438;-1.528;2022-12-24T04:08:38;13.90;91.70
64062;DHT22;50308;47.438;-1.528;2022-12-24T04:11:04;13.90;91.70
64062;DHT22;50308;47.438;-1.528;2022-12-24T04:13:30;13.90;91.70
64062;DHT22;50308;47.438;-1.528;2022-12-24T04:15:59;13.90;91.70
64062;DHT22;50308;47.438;-1.528;2022-12-24T04:18:26;13.90;91.70
64062;DHT22;50308;47.438;-1.528;2022-12-24T04:20:51;13.90;91.70
64062;DHT22;50308;47.438;-1.528;2022-12-24T04:23:17;13.90;91.70
64062;DHT22;50308;47.438;-1.528;2022-12-24T04:25:43;13.90;91.70
64062;DHT22;50308;47.438;-1.528;2022-12-24T04:28:08;13.90;91.70
64062;DHT22;50308;47.438;-1.528;2022-12-24T04:30:34;13.90;91.70
64062;DHT22;50308;47.438;-1.528;2022-12-24T04:32:59;13.90;91.80
64062;DHT22;50308;47.438;-1.528;2022-12-24T04:35:25;13.90;91.70
64062;DHT22;50308;47.438;-1.528;2022-12-24T04:37:50;13.90;91.80
64062;DHT22;50308;47.438;-1.528;2022-12-24T04:40:16;13.90;91.80
64062;DHT22;50308;47.438;-1.528;2022-12-24T04:42:41;13.90;91.70
64062;DHT22;50308;47.438;-1.528;2022-12-24T04:45:07;13.90;91.80
64062;DHT22;50308;47.438;-1.528;2022-12-24T04:47:33;13.90;91.70
64062;DHT22;50308;47.438;-1.528;2022-12-24T04:49:58;13.90;91.70
64062;DHT22;50308;47.438;-1.528;2022-12-24T04:52:25;13.90;91.70
64062;DHT22;50308;47.438;-1.528;2022-12-24T04:54:51;13.90;91.70
64062;DHT22;50308;47.438;-1.528;2022-12-24T04:57:17;13.90;91.70
64062;DHT22;50308;47.438;-1.528;2022-12-24T04:59:42;13.90;91.70
64062;DHT22;50308;47.438;-1.528;2022-12-24T05:02:08;13.90;91.80
64062;DHT22;50308;47.438;-1.528;2022-12-24T05:04:33;13.90;91.70
64062;DHT22;50308;47.438;-1.528;2022-12-24T05:06:59;13.90;91.70
64062;DHT22;50308;47.438;-1.528;2022-12-24T05:09:24;13.90;91.70
64062;DHT22;50308;47.438;-1.528;2022-12-24T05:11:50;13.90;91.60
64062;DHT22;50308;47.438;-1.528;2022-12-24T05:14:15;13.90;91.70
64062;DHT22;50308;47.438;-1.528;2022-12-24T05:16:41;13.90;91.70
64062;DHT22;50308;47.438;-1.528;2022-12-24T05:19:08;13.90;91.70
64062;DHT22;50308;47.438;-1.528;2022-12-24T05:21:33;13.90;91.70
64062;DHT22;50308;47.438;-1.528;2022-12-24T05:23:59;13.90;91.70
64062;DHT22;50308;47.438;-1.528;2022-12-24T05:29:09;13.90;91.70
64062;DHT22;50308;47.438;-1.528;2022-12-24T05:31:36;13.90;91.70
64062;DHT22;50308;47.438;-1.528;2022-12-24T05:34:03;13.90;91.70
64062;DHT22;50308;47.438;-1.528;2022-12-24T05:36:29;13.90;91.70
64062;DHT22;50308;47.438;-1.528;2022-12-24T05:38:55;13.90;91.70
64062;DHT22;50308;47.438;-1.528;2022-12-24T05:41:21;13.90;91.70
64062;DHT22;50308;47.438;-1.528;2022-12-24T05:43:46;13.90;91.80
64062;DHT22;50308;47.438;-1.528;2022-12-24T05:46:13;13.90;91.70
64062;DHT22;50308;47.438;-1.528;2022-12-24T05:48:39;13.90;91.70
64062;DHT22;50308;47.438;-1.528;2022-12-24T05:51:05;13.90;91.70
64062;DHT22;50308;47.438;-1.528;2022-12-24T05:53:31;13.90;91.70
64062;DHT22;50308;47.438;-1.528;2022-12-24T05:56:07;13.90;91.60
64062;DHT22;50308;47.438;-1.528;2022-12-24T05:58:33;13.90;91.70
64062;DHT22;50308;47.438;-1.528;2022-12-24T06:00:59;13.90;91.60
64062;DHT22;50308;47.438;-1.528;2022-12-24T06:03:25;13.90;91.60
64062;DHT22;50308;47.438;-1.528;2022-12-24T06:05:58;13.90;91.60
64062;DHT22;50308;47.438;-1.528;2022-12-24T06:08:23;13.90;91.70
64062;DHT22;50308;47.438;-1.528;2022-12-24T06:10:53;13.90;91.60
64062;DHT22;50308;47.438;-1.528;2022-12-24T06:13:18;13.90;91.70
64062;DHT22;50308;47.438;-1.528;2022-12-24T06:15:44;13.90;91.70
64062;DHT22;50308;47.438;-1.528;2022-12-24T06:18:09;13.90;91.70
64062;DHT22;50308;47.438;-1.528;2022-12-24T06:20:35;13.90;91.70
64062;DHT22;50308;47.438;-1.528;2022-12-24T06:23:00;13.90;91.60
64062;DHT22;50308;47.438;-1.528;2022-12-24T06:25:26;13.90;91.70
64062;DHT22;50308;47.438;-1.528;2022-12-24T06:27:52;13.90;91.60
64062;DHT22;50308;47.438;-1.528;2022-12-24T06:30:17;13.90;91.60
64062;DHT22;50308;47.438;-1.528;2022-12-24T06:32:43;13.90;91.60
64062;DHT22;50308;47.438;-1.528;2022-12-24T06:35:08;13.90;91.60
64062;DHT22;50308;47.438;-1.528;2022-12-24T06:37:34;13.90;91.60
64062;DHT22;50308;47.438;-1.528;2022-12-24T06:39:59;13.90;91.60
64062;DHT22;50308;47.438;-1.528;2022-12-24T06:42:25;13.90;91.70
64062;DHT22;50308;47.438;-1.528;2022-12-24T06:44:50;13.90;91.60
64062;DHT22;50308;47.438;-1.528;2022-12-24T06:47:16;13.90;91.60
64062;DHT22;50308;47.438;-1.528;2022-12-24T06:49:42;13.90;91.60
64062;DHT22;50308;47.438;-1.528;2022-12-24T06:52:07;13.90;91.60
64062;DHT22;50308;47.438;-1.528;2022-12-24T06:54:33;13.90;91.70
64062;DHT22;50308;47.438;-1.528;2022-12-24T06:56:58;13.90;91.70
64062;DHT22;50308;47.438;-1.528;2022-12-24T06:59:24;13.90;91.60
64062;DHT22;50308;47.438;-1.528;2022-12-24T07:01:50;13.90;91.60
64062;DHT22;50308;47.438;-1.528;2022-12-24T07:04:15;13.90;91.60
64062;DHT22;50308;47.438;-1.528;2022-12-24T07:06:41;13.90;91.70
64062;DHT22;50308;47.438;-1.528;2022-12-24T07:09:06;13.90;91.60
64062;DHT22;50308;47.438;-1.528;2022-12-24T07:11:32;13.90;91.60
64062;DHT22;50308;47.438;-1.528;2022-12-24T07:13:57;13.90;91.60
64062;DHT22;50308;47.438;-1.528;2022-12-24T07:16:23;13.90;91.60
64062;DHT22;50308;47.438;-1.528;2022-12-24T07:18:48;13.90;91.60
64062;DHT22;50308;47.438;-1.528;2022-12-24T07:21:14;13.90;91.60
64062;DHT22;50308;47.438;-1.528;2022-12-24T07:23:39;13.90;91.60
64062;DHT22;50308;47.438;-1.528;2022-12-24T07:26:05;13.90;91.60
64062;DHT22;50308;47.438;-1.528;2022-12-24T07:28:31;13.80;91.60
64062;DHT22;50308;47.438;-1.528;2022-12-24T07:30:57;13.90;91.60
64062;DHT22;50308;47.438;-1.528;2022-12-24T07:33:23;13.90;91.60
64062;DHT22;50308;47.438;-1.528;2022-12-24T07:35:56;13.90;91.60
64062;DHT22;50308;47.438;-1.528;2022-12-24T07:38:21;13.90;91.70
64062;DHT22;50308;47.438;-1.528;2022-12-24T07:40:47;13.90;91.70
64062;DHT22;50308;47.438;-1.528;2022-12-24T07:43:12;13.90;91.70
64062;DHT22;50308;47.438;-1.528;2022-12-24T07:45:38;13.90;91.60
64062;DHT22;50308;47.438;-1.528;2022-12-24T07:48:04;13.90;91.60
64062;DHT22;50308;47.438;-1.528;2022-12-24T07:50:29;13.90;91.60
64062;DHT22;50308;47.438;-1.528;2022-12-24T07:52:55;13.90;91.60
64062;DHT22;50308;47.438;-1.528;2022-12-24T07:55:20;13.90;91.60
64062;DHT22;50308;47.438;-1.528;2022-12-24T07:57:46;13.90;91.60
64062;DHT22;50308;47.438;-1.528;2022-12-24T08:00:12;13.90;91.60
64062;DHT22;50308;47.438;-1.528;2022-12-24T08:02:37;13.90;91.70
64062;DHT22;50308;47.438;-1.528;2022-12-24T08:05:03;13.90;91.60
64062;DHT22;50308;47.438;-1.528;2022-12-24T08:07:29;13.90;91.60
64062;DHT22;50308;47.438;-1.528;2022-12-24T08:09:54;13.90;91.60
64062;DHT22;50308;47.438;-1.528;2022-12-24T08:12:20;13.90;91.60
64062;DHT22;50308;47.438;-1.528;2022-12-24T08:14:45;13.90;91.60
64062;DHT22;50308;47.438;-1.528;2022-12-24T08:17:11;13.90;91.70
64062;DHT22;50308;47.438;-1.528;2022-12-24T08:19:36;13.90;91.60
64062;DHT22;50308;47.438;-1.528;2022-12-24T08:22:02;13.90;91.70
64062;DHT22;50308;47.438;-1.528;2022-12-24T08:24:27;13.90;91.70
64062;DHT22;50308;47.438;-1.528;2022-12-24T08:26:53;13.90;91.60
64062;DHT22;50308;47.438;-1.528;2022-12-24T08:29:18;13.90;91.70
64062;DHT22;50308;47.438;-1.528;2022-12-24T08:31:44;13.80;91.70
64062;DHT22;50308;47.438;-1.528;2022-12-24T08:34:10;13.90;91.70
64062;DHT22;50308;47.438;-1.528;2022-12-24T08:36:35;13.90;91.70
64062;DHT22;50308;47.438;-1.528;2022-12-24T08:39:01;13.90;91.70
64062;DHT22;50308;47.438;-1.528;2022-12-24T08:41:31;13.90;91.70
64062;DHT22;50308;47.438;-1.528;2022-12-24T08:43:56;13.90;91.60
64062;DHT22;50308;47.438;-1.528;2022-12-24T08:46:22;13.90;91.70
64062;DHT22;50308;47.438;-1.528;2022-12-24T08:48:48;13.90;91.70
64062;DHT22;50308;47.438;-1.528;2022-12-24T08:51:13;13.90;91.60
64062;DHT22;50308;47.438;-1.528;2022-12-24T08:53:39;13.90;91.60
64062;DHT22;50308;47.438;-1.528;2022-12-24T08:56:06;13.90;91.60
64062;DHT22;50308;47.438;-1.528;2022-12-24T08:58:32;13.90;91.60
64062;DHT22;50308;47.438;-1.528;2022-12-24T09:00:57;13.90;91.60
64062;DHT22;50308;47.438;-1.528;2022-12-24T09:03:23;13.90;91.60
64062;DHT22;50308;47.438;-1.528;2022-12-24T09:05:49;13.90;91.60
64062;DHT22;50308;47.438;-1.528;2022-12-24T09:08:16;13.90;91.60
64062;DHT22;50308;47.438;-1.528;2022-12-24T09:10:42;13.90;91.60
64062;DHT22;50308;47.438;-1.528;2022-12-24T09:13:07;13.90;91.60
64062;DHT22;50308;47.438;-1.528;2022-12-24T09:15:33;13.90;91.60
64062;DHT22;50308;47.438;-1.528;2022-12-24T09:17:59;13.90;91.60
64062;DHT22;50308;47.438;-1.528;2022-12-24T09:20:25;13.90;91.60
64062;DHT22;50308;47.438;-1.528;2022-12-24T09:22:51;13.90;91.60
64062;DHT22;50308;47.438;-1.528;2022-12-24T09:25:16;13.90;91.60
64062;DHT22;50308;47.438;-1.528;2022-12-24T09:27:42;13.90;91.60
64062;DHT22;50308;47.438;-1.528;2022-12-24T09:30:07;13.90;91.60
64062;DHT22;50308;47.438;-1.528;2022-12-24T09:32:33;14.00;91.60
64062;DHT22;50308;47.438;-1.528;2022-12-24T09:34:59;13.90;91.60
64062;DHT22;50308;47.438;-1.528;2022-12-24T09:37:25;14.00;91.70
64062;DHT22;50308;47.438;-1.528;2022-12-24T09:39:50;13.90;91.60
64062;DHT22;50308;47.438;-1.528;2022-12-24T09:44:43;13.90;91.60
64062;DHT22;50308;47.438;-1.528;2022-12-24T09:47:21;14.00;91.60
64062;DHT22;50308;47.438;-1.528;2022-12-24T09:49:47;14.00;91.60
64062;DHT22;50308;47.438;-1.528;2022-12-24T09:52:25;14.00;91.60
64062;DHT22;50308;47.438;-1.528;2022-12-24T09:54:57;14.00;91.60
64062;DHT22;50308;47.438;-1.528;2022-12-24T09:57:31;14.00;91.60
64062;DHT22;50308;47.438;-1.528;2022-12-24T09:59:59;14.00;91.50
64062;DHT22;50308;47.438;-1.528;2022-12-24T10:02:24;14.00;91.50
64062;DHT22;50308;47.438;-1.528;2022-12-24T10:04:50;14.00;91.50
64062;DHT22;50308;47.438;-1.528;2022-12-24T10:17:48;14.00;91.50
64062;DHT22;50308;47.438;-1.528;2022-12-24T10:25:43;14.10;91.50
64062;DHT22;50308;47.438;-1.528;2022-12-24T10:28:14;14.00;91.50
64062;DHT22;50308;47.438;-1.528;2022-12-24T10:30:40;14.00;91.50
64062;DHT22;50308;47.438;-1.528;2022-12-24T10:33:11;14.10;91.50
64062;DHT22;50308;47.438;-1.528;2022-12-24T10:35:40;14.00;91.50
64062;DHT22;50308;47.438;-1.528;2022-12-24T10:38:09;14.10;91.50
64062;DHT22;50308;47.438;-1.528;2022-12-24T10:40:42;14.10;91.50
64062;DHT22;50308;47.438;-1.528;2022-12-24T10:43:12;14.10;91.50
64062;DHT22;50308;47.438;-1.528;2022-12-24T10:45:38;14.10;91.50
64062;DHT22;50308;47.438;-1.528;2022-12-24T10:48:06;14.10;91.50
64062;DHT22;50308;47.438;-1.528;2022-12-24T10:50:35;14.10;91.50
64062;DHT22;50308;47.438;-1.528;2022-12-24T10:53:23;14.10;91.50
64062;DHT22;50308;47.438;-1.528;2022-12-24T10:55:48;14.10;91.50
64062;DHT22;50308;47.438;-1.528;2022-12-24T10:58:18;14.10;91.50
64062;DHT22;50308;47.438;-1.528;2022-12-24T11:00:50;14.10;91.50
64062;DHT22;50308;47.438;-1.528;2022-12-24T11:05:41;14.10;91.50
64062;DHT22;50308;47.438;-1.528;2022-12-24T11:08:17;14.10;91.50
64062;DHT22;50308;47.438;-1.528;2022-12-24T11:10:55;14.10;91.50
64062;DHT22;50308;47.438;-1.528;2022-12-24T11:13:40;14.10;91.50
64062;DHT22;50308;47.438;-1.528;2022-12-24T11:18:48;14.10;91.50
64062;DHT22;50308;47.438;-1.528;2022-12-24T11:21:25;14.10;91.40
64062;DHT22;50308;47.438;-1.528;2022-12-24T11:23:58;14.10;91.50
64062;DHT22;50308;47.438;-1.528;2022-12-24T11:26:25;14.10;91.50
64062;DHT22;50308;47.438;-1.528;2022-12-24T11:31:35;14.10;91.50
64062;DHT22;50308;47.438;-1.528;2022-12-24T11:34:16;14.10;91.40
64062;DHT22;50308;47.438;-1.528;2022-12-24T11:36:41;14.10;91.40
64062;DHT22;50308;47.438;-1.528;2022-12-24T11:39:09;14.10;91.50
64062;DHT22;50308;47.438;-1.528;2022-12-24T11:41:42;14.20;91.50
64062;DHT22;50308;47.438;-1.528;2022-12-24T11:44:07;14.20;91.50
64062;DHT22;50308;47.438;-1.528;2022-12-24T11:46:35;14.20;91.50
64062;DHT22;50308;47.438;-1.528;2022-12-24T11:49:05;14.10;91.40
64062;DHT22;50308;47.438;-1.528;2022-12-24T11:51:37;14.20;91.50
64062;DHT22;50308;47.438;-1.528;2022-12-24T11:56:45;14.20;91.50
64062;DHT22;50308;47.438;-1.528;2022-12-24T11:59:32;14.20;91.50
64062;DHT22;50308;47.438;-1.528;2022-12-24T12:02:15;14.20;91.50
64062;DHT22;50308;47.438;-1.528;2022-12-24T12:04:42;14.20;91.50
64062;DHT22;50308;47.438;-1.528;2022-12-24T12:07:16;14.20;91.30
64062;DHT22;50308;47.438;-1.528;2022-12-24T12:09:44;14.20;91.50
64062;DHT22;50308;47.438;-1.528;2022-12-24T12:12:21;14.20;91.50
64062;DHT22;50308;47.438;-1.528;2022-12-24T12:15:10;14.20;90.80
64062;DHT22;50308;47.438;-1.528;2022-12-24T12:27:54;14.20;90.90
64062;DHT22;50308;47.438;-1.528;2022-12-24T12:30:21;14.20;90.90
64062;DHT22;50308;47.438;-1.528;2022-12-24T12:32:59;14.20;91.20
64062;DHT22;50308;47.438;-1.528;2022-12-24T12:35:28;14.20;91.10
64062;DHT22;50308;47.438;-1.528;2022-12-24T12:37:56;14.20;91.40
64062;DHT22;50308;47.438;-1.528;2022-12-24T12:40:25;14.20;91.40
64062;DHT22;50308;47.438;-1.528;2022-12-24T12:45:52;14.20;91.20
64062;DHT22;50308;47.438;-1.528;2022-12-24T12:50:48;14.20;90.90
64062;DHT22;50308;47.438;-1.528;2022-12-24T12:55:58;14.20;91.30
64062;DHT22;50308;47.438;-1.528;2022-12-24T13:00:56;14.20;91.10
64062;DHT22;50308;47.438;-1.528;2022-12-24T13:03:28;14.20;91.20
64062;DHT22;50308;47.438;-1.528;2022-12-24T13:11:33;14.20;91.10
64062;DHT22;50308;47.438;-1.528;2022-12-24T13:21:54;14.20;91.30
64062;DHT22;50308;47.438;-1.528;2022-12-24T13:24:21;14.30;91.10
64062;DHT22;50308;47.438;-1.528;2022-12-24T13:34:50;14.30;91.00
64062;DHT22;50308;47.438;-1.528;2022-12-24T13:40:01;14.30;91.40
64062;DHT22;50308;47.438;-1.528;2022-12-24T13:47:53;14.30;90.60
64062;DHT22;50308;47.438;-1.528;2022-12-24T13:50:23;14.30;90.50
64062;DHT22;50308;47.438;-1.528;2022-12-24T13:52:51;14.30;90.50
64062;DHT22;50308;47.438;-1.528;2022-12-24T13:55:17;14.30;90.50
64062;DHT22;50308;47.438;-1.528;2022-12-24T13:57:44;14.30;90.50
64062;DHT22;50308;47.438;-1.528;2022-12-24T14:02:48;14.30;90.30
64062;DHT22;50308;47.438;-1.528;2022-12-24T14:05:35;14.30;90.50
64062;DHT22;50308;47.438;-1.528;2022-12-24T14:08:03;14.30;90.60
64062;DHT22;50308;47.438;-1.528;2022-12-24T14:10:30;14.30;90.60
64062;DHT22;50308;47.438;-1.528;2022-12-24T14:12:58;14.30;90.40
64062;DHT22;50308;47.438;-1.528;2022-12-24T14:18:08;14.30;90.40
64062;DHT22;50308;47.438;-1.528;2022-12-24T14:20:34;14.30;90.30
64062;DHT22;50308;47.438;-1.528;2022-12-24T14:23:00;14.30;90.30
64062;DHT22;50308;47.438;-1.528;2022-12-24T14:25:27;14.30;90.30
64062;DHT22;50308;47.438;-1.528;2022-12-24T14:27:56;14.30;90.40
64062;DHT22;50308;47.438;-1.528;2022-12-24T14:30:23;14.30;90.30
64062;DHT22;50308;47.438;-1.528;2022-12-24T14:32:49;14.30;90.50
64062;DHT22;50308;47.438;-1.528;2022-12-24T14:35:16;14.30;90.30
64062;DHT22;50308;47.438;-1.528;2022-12-24T14:37:47;14.30;90.40
64062;DHT22;50308;47.438;-1.528;2022-12-24T14:40:17;14.30;90.40
64062;DHT22;50308;47.438;-1.528;2022-12-24T14:48:04;14.30;90.20
64062;DHT22;50308;47.438;-1.528;2022-12-24T14:58:25;14.30;90.30
64062;DHT22;50308;47.438;-1.528;2022-12-24T15:00:52;14.30;90.30
64062;DHT22;50308;47.438;-1.528;2022-12-24T15:03:19;14.30;90.40
64062;DHT22;50308;47.438;-1.528;2022-12-24T15:05:49;14.30;90.40
64062;DHT22;50308;47.438;-1.528;2022-12-24T15:08:16;14.30;90.30
64062;DHT22;50308;47.438;-1.528;2022-12-24T15:10:42;14.30;90.40
64062;DHT22;50308;47.438;-1.528;2022-12-24T15:13:12;14.30;90.40
64062;DHT22;50308;47.438;-1.528;2022-12-24T15:15:44;14.30;90.40
64062;DHT22;50308;47.438;-1.528;2022-12-24T15:18:13;14.30;90.60
64062;DHT22;50308;47.438;-1.528;2022-12-24T15:20:41;14.30;90.60
64062;DHT22;50308;47.438;-1.528;2022-12-24T15:23:15;14.30;90.80
64062;DHT22;50308;47.438;-1.528;2022-12-24T15:25:42;14.30;90.70
64062;DHT22;50308;47.438;-1.528;2022-12-24T15:28:17;14.30;90.80
64062;DHT22;50308;47.438;-1.528;2022-12-24T15:30:44;14.20;90.70
64062;DHT22;50308;47.438;-1.528;2022-12-24T15:33:10;14.20;90.70
64062;DHT22;50308;47.438;-1.528;2022-12-24T15:35:43;14.30;90.80
64062;DHT22;50308;47.438;-1.528;2022-12-24T15:38:43;14.30;90.80
64062;DHT22;50308;47.438;-1.528;2022-12-24T15:41:03;14.30;90.80
64062;DHT22;50308;47.438;-1.528;2022-12-24T15:43:30;14.30;90.80
64062;DHT22;50308;47.438;-1.528;2022-12-24T15:45:56;14.30;91.20
64062;DHT22;50308;47.438;-1.528;2022-12-24T15:48:23;14.20;90.80
64062;DHT22;50308;47.438;-1.528;2022-12-24T15:50:50;14.30;90.80
64062;DHT22;50308;47.438;-1.528;2022-12-24T15:53:33;14.20;90.80
64062;DHT22;50308;47.438;-1.528;2022-12-24T15:56:12;14.20;90.80
64062;DHT22;50308;47.438;-1.528;2022-12-24T15:58:38;14.30;90.90
64062;DHT22;50308;47.438;-1.528;2022-12-24T16:03:36;14.20;90.80
64062;DHT22;50308;47.438;-1.528;2022-12-24T16:06:03;14.30;91.30
64062;DHT22;50308;47.438;-1.528;2022-12-24T16:08:30;14.30;90.90
64062;DHT22;50308;47.438;-1.528;2022-12-24T16:16:17;14.20;90.90
64062;DHT22;50308;47.438;-1.528;2022-12-24T16:18:55;14.20;90.90
64062;DHT22;50308;47.438;-1.528;2022-12-24T16:24:20;14.20;91.00
64062;DHT22;50308;47.438;-1.528;2022-12-24T16:26:47;14.20;91.00
64062;DHT22;50308;47.438;-1.528;2022-12-24T16:29:12;14.20;91.00
64062;DHT22;50308;47.438;-1.528;2022-12-24T16:31:57;14.30;91.00
64062;DHT22;50308;47.438;-1.528;2022-12-24T16:34:24;14.20;91.00
64062;DHT22;50308;47.438;-1.528;2022-12-24T16:36:50;14.20;90.90
64062;DHT22;50308;47.438;-1.528;2022-12-24T16:39:23;14.20;90.90
64062;DHT22;50308;47.438;-1.528;2022-12-24T16:41:50;14.20;91.00
64062;DHT22;50308;47.438;-1.528;2022-12-24T16:44:34;14.20;91.00
64062;DHT22;50308;47.438;-1.528;2022-12-24T16:46:59;14.20;90.90
64062;DHT22;50308;47.438;-1.528;2022-12-24T16:49:25;14.20;90.90
64062;DHT22;50308;47.438;-1.528;2022-12-24T16:51:51;14.20;91.00
64062;DHT22;50308;47.438;-1.528;2022-12-24T16:54:16;14.20;91.00
64062;DHT22;50308;47.438;-1.528;2022-12-24T16:56:43;14.20;91.00
64062;DHT22;50308;47.438;-1.528;2022-12-24T16:59:18;14.20;91.00
64062;DHT22;50308;47.438;-1.528;2022-12-24T17:01:45;14.20;91.00
64062;DHT22;50308;47.438;-1.528;2022-12-24T17:04:10;14.20;91.10
64062;DHT22;50308;47.438;-1.528;2022-12-24T17:06:36;14.20;91.00
64062;DHT22;50308;47.438;-1.528;2022-12-24T17:09:02;14.20;91.00
64062;DHT22;50308;47.438;-1.528;2022-12-24T17:11:28;14.20;90.90
64062;DHT22;50308;47.438;-1.528;2022-12-24T17:13:53;14.20;91.00
64062;DHT22;50308;47.438;-1.528;2022-12-24T17:16:19;14.10;90.90
64062;DHT22;50308;47.438;-1.528;2022-12-24T17:18:44;14.10;90.90
64062;DHT22;50308;47.438;-1.528;2022-12-24T17:21:10;14.10;91.00
64062;DHT22;50308;47.438;-1.528;2022-12-24T17:23:39;14.10;91.00
64062;DHT22;50308;47.438;-1.528;2022-12-24T17:26:05;14.10;91.00
64062;DHT22;50308;47.438;-1.528;2022-12-24T17:28:30;14.10;91.00
64062;DHT22;50308;47.438;-1.528;2022-12-24T17:30:56;14.10;91.00
64062;DHT22;50308;47.438;-1.528;2022-12-24T17:33:23;14.10;91.00
64062;DHT22;50308;47.438;-1.528;2022-12-24T17:35:48;14.10;90.90